Time,TemperatureF,DewpointF,PressureIn,WindDirection,WindDirectionDegrees,WindSpeedMPH,WindSpeedGustMPH,Humidity,HourlyPrecipIn,Conditions,Clouds,dailyrainin,SoftwareType,DateUTC
2013-09-20 00:02:00,71.0,66.0,30.13,SW,224,2.0,3.0,84,0.00,,,0.00,weatherlink.com 1.10,2013-09-20 04:02:00,
2013-09-20 00:17:00,71.1,66.0,30.13,South,188,2.0,4.0,84,0.00,,,0.00,weatherlink.com 1.10,2013-09-20 04:17:00,
2013-09-20 00:32:00,71.4,66.0,30.13,SW,219,5.0,8.0,83,0.00,,,0.00,weatherlink.com 1.10,2013-09-20 04:32:00,
2013-09-20 00:47:00,70.9,66.0,30.13,SW,221,5.0,5.0,84,0.00,,,0.00,weatherlink.com 1.10,2013-09-20 04:47:00,
2013-09-20 01:02:00,70.3,66.0,30.12,SSW,198,4.0,6.0,85,0.00,,,0.00,weatherlink.com 1.10,2013-09-20 05:02:00,
2013-09-20 01:17:00,69.7,66.0,30.12,SSE,149,2.0,5.0,87,0.00,,,0.00,weatherlink.com 1.10,2013-09-20 05:17:00,
2013-09-20 01:32:00,69.0,66.0,30.12,South,172,1.0,4.0,89,0.00,,,0.00,weatherlink.com 1.10,2013-09-20 05:32:00,
2013-09-20 01:47:00,68.9,65.0,30.12,West,274,0.0,3.0,88,0.00,,,0.00,weatherlink.com 1.10,2013-09-20 05:47:00,
2013-09-20 02:02:00,68.5,65.0,30.13,SW,229,0.0,1.0,89,0.00,,,0.00,weatherlink.com 1.10,2013-09-20 06:02:00,
2013-09-20 02:17:00,68.4,65.0,30.12,ESE,116,1.0,2.0,90,0.00,,,0.00,weatherlink.com 1.10,2013-09-20 06:17:00,
2013-09-20 02:32:00,68.2,65.0,30.12,South,188,1.0,5.0,90,0.00,,,0.00,weatherlink.com 1.10,2013-09-20 06:32:00,
2013-09-20 02:47:00,68.8,65.0,30.12,WSW,248,5.0,5.0,88,0.00,,,0.00,weatherlink.com 1.10,2013-09-20 06:47:00,
2013-09-20 03:03:00,68.9,65.0,30.12,West,279,1.0,4.0,87,0.00,,,0.00,weatherlink.com 1.10,2013-09-20 07:03:00,
2013-09-20 03:18:00,68.4,65.0,30.12,West,261,2.0,4.0,88,0.00,,,0.00,weatherlink.com 1.10,2013-09-20 07:18:00,
2013-09-20 03:33:00,67.9,65.0,30.11,WSW,250,0.0,2.0,90,0.00,,,0.00,weatherlink.com 1.10,2013-09-20 07:33:00,
2013-09-20 03:48:00,67.7,65.0,30.11,West,278,1.0,3.0,90,0.00,,,0.00,weatherlink.com 1.10,2013-09-20 07:48:00,
2013-09-20 04:03:00,67.6,65.0,30.11,SSW,207,1.0,2.0,90,0.00,,,0.00,weatherlink.com 1.10,2013-09-20 08:03:00,
2013-09-20 04:18:00,67.3,65.0,30.11,SSW,199,2.0,3.0,91,0.00,,,0.00,weatherlink.com 1.10,2013-09-20 08:18:00,
2013-09-20 04:33:00,67.2,65.0,30.11,WNW,289,2.0,3.0,91,0.00,,,0.00,weatherlink.com 1.10,2013-09-20 08:33:00,
2013-09-20 04:48:00,67.6,65.0,30.12,WNW,290,3.0,4.0,90,0.00,,,0.00,weatherlink.com 1.10,2013-09-20 08:48:00,
2013-09-20 05:03:00,67.5,65.0,30.11,West,276,4.0,4.0,90,0.00,,,0.00,weatherlink.com 1.10,2013-09-20 09:03:00,
2013-09-20 05:18:00,67.3,65.0,30.11,WNW,290,4.0,5.0,91,0.00,,,0.00,weatherlink.com 1.10,2013-09-20 09:18:00,
2013-09-20 05:33:00,67.3,65.0,30.11,WNW,288,4.0,5.0,91,0.00,,,0.00,weatherlink.com 1.10,2013-09-20 09:33:00,
2013-09-20 05:48:00,67.1,65.0,30.11,WNW,292,3.0,4.0,92,0.00,,,0.00,weatherlink.com 1.10,2013-09-20 09:48:00,
2013-09-20 06:03:00,67.0,65.0,30.11,West,280,4.0,4.0,92,0.00,,,0.00,weatherlink.com 1.10,2013-09-20 10:03:00,
2013-09-20 06:18:00,67.2,64.0,30.11,WNW,288,2.0,4.0,90,0.00,,,0.00,weatherlink.com 1.10,2013-09-20 10:18:00,
2013-09-20 06:33:00,67.3,64.0,30.11,SW,226,4.0,5.0,90,0.00,,,0.00,weatherlink.com 1.10,2013-09-20 10:33:00,
2013-09-20 06:48:00,66.4,64.0,30.11,ESE,105,1.0,3.0,92,0.00,,,0.00,weatherlink.com 1.10,2013-09-20 10:48:00,
2013-09-20 07:03:00,65.3,64.0,30.11,SE,142,2.0,4.0,94,0.00,,,0.00,weatherlink.com 1.10,2013-09-20 11:03:00,
2013-09-20 07:18:00,64.4,63.0,30.12,SE,127,2.0,4.0,95,0.00,,,0.00,weatherlink.com 1.10,2013-09-20 11:18:00,
2013-09-20 07:33:00,64.9,64.0,30.12,WSW,238,1.0,4.0,96,0.00,,,0.00,weatherlink.com 1.10,2013-09-20 11:33:00,
2013-09-20 07:48:00,65.5,64.0,30.12,WSW,257,3.0,4.0,94,0.00,,,0.00,weatherlink.com 1.10,2013-09-20 11:48:00,
2013-09-20 08:03:00,66.3,64.0,30.12,SW,234,7.0,7.0,92,0.00,,,0.00,weatherlink.com 1.10,2013-09-20 12:03:00,
2013-09-20 08:18:00,66.8,64.0,30.12,WSW,245,1.0,6.0,90,0.00,,,0.00,weatherlink.com 1.10,2013-09-20 12:18:00,
2013-09-20 08:33:00,69.5,65.0,30.11,SSE,157,0.0,0.0,85,0.00,,,0.00,weatherlink.com 1.10,2013-09-20 12:33:00,
2013-09-20 08:48:00,70.2,66.0,30.11,East,98,0.0,2.0,85,0.00,,,0.00,weatherlink.com 1.10,2013-09-20 12:48:00,
2013-09-20 09:03:00,68.8,65.0,30.12,SW,236,0.0,3.0,86,0.00,,,0.00,weatherlink.com 1.10,2013-09-20 13:03:00,
2013-09-20 09:18:00,70.7,66.0,30.12,SE,124,3.0,4.0,84,0.00,,,0.00,weatherlink.com 1.10,2013-09-20 13:18:00,
2013-09-20 09:33:00,72.0,66.0,30.12,South,177,2.0,4.0,82,0.00,,,0.00,weatherlink.com 1.10,2013-09-20 13:33:00,
2013-09-20 09:48:00,73.2,66.0,30.12,SW,228,0.0,5.0,79,0.00,,,0.00,weatherlink.com 1.10,2013-09-20 13:48:00,
2013-09-20 10:03:00,74.5,67.0,30.12,ESE,122,3.0,7.0,78,0.00,,,0.00,weatherlink.com 1.10,2013-09-20 14:03:00,
2013-09-20 10:18:00,76.1,67.0,30.12,SE,129,2.0,6.0,74,0.00,,,0.00,weatherlink.com 1.10,2013-09-20 14:18:00,
2013-09-20 10:33:00,77.2,67.0,30.11,SW,233,5.0,6.0,71,0.00,,,0.00,weatherlink.com 1.10,2013-09-20 14:33:00,
2013-09-20 10:48:00,76.4,66.0,30.11,WNW,285,8.0,10.0,69,0.00,,,0.00,weatherlink.com 1.10,2013-09-20 14:48:00,
2013-09-20 11:03:00,76.1,66.0,30.11,WSW,253,10.0,10.0,70,0.00,,,0.00,weatherlink.com 1.10,2013-09-20 15:03:00,
2013-09-20 11:18:00,77.7,66.0,30.11,NNW,342,1.0,8.0,67,0.00,,,0.00,weatherlink.com 1.10,2013-09-20 15:18:00,
2013-09-20 11:33:00,77.3,65.0,30.11,SE,136,6.0,9.0,67,0.00,,,0.00,weatherlink.com 1.10,2013-09-20 15:33:00,
2013-09-20 11:48:00,77.3,65.0,30.10,SSW,194,4.0,11.0,67,0.00,,,0.00,weatherlink.com 1.10,2013-09-20 15:48:00,
2013-09-20 12:03:00,79.6,66.0,30.09,SSW,198,1.0,9.0,63,0.00,,,0.00,weatherlink.com 1.10,2013-09-20 16:03:00,
2013-09-20 12:19:00,80.1,66.0,30.09,SW,231,8.0,13.0,63,0.00,,,0.00,weatherlink.com 1.10,2013-09-20 16:19:00,
2013-09-20 12:34:00,80.2,66.0,30.09,SSE,156,5.0,15.0,62,0.00,,,0.00,weatherlink.com 1.10,2013-09-20 16:34:00,
2013-09-20 12:49:00,79.6,65.0,30.08,WSW,244,7.0,13.0,62,0.00,,,0.00,weatherlink.com 1.10,2013-09-20 16:49:00,
2013-09-20 13:04:00,81.6,65.0,30.07,SSW,208,2.0,11.0,58,0.00,,,0.00,weatherlink.com 1.10,2013-09-20 17:04:00,
2013-09-20 13:19:00,81.8,66.0,30.07,SW,217,4.0,12.0,59,0.00,,,0.00,weatherlink.com 1.10,2013-09-20 17:19:00,
2013-09-20 13:34:00,82.3,65.0,30.06,SW,215,3.0,14.0,57,0.00,,,0.00,weatherlink.com 1.10,2013-09-20 17:34:00,
2013-09-20 13:49:00,83.0,66.0,30.06,South,175,10.0,11.0,56,0.00,,,0.00,weatherlink.com 1.10,2013-09-20 17:49:00,
2013-09-20 14:04:00,81.9,66.0,30.05,ESE,111,3.0,12.0,58,0.00,,,0.00,weatherlink.com 1.10,2013-09-20 18:04:00,
2013-09-20 14:19:00,82.0,66.0,30.04,SW,236,12.0,14.0,58,0.00,,,0.00,weatherlink.com 1.10,2013-09-20 18:19:00,
2013-09-20 14:34:00,82.0,65.0,30.03,East,95,6.0,9.0,57,0.00,,,0.00,weatherlink.com 1.10,2013-09-20 18:34:00,
2013-09-20 14:49:00,81.5,64.0,30.02,WSW,238,4.0,11.0,55,0.00,,,0.00,weatherlink.com 1.10,2013-09-20 18:49:00,
2013-09-20 15:04:00,81.6,64.0,30.01,SSE,154,3.0,9.0,56,0.00,,,0.00,weatherlink.com 1.10,2013-09-20 19:04:00,
2013-09-20 15:19:00,82.5,65.0,30.00,East,89,8.0,13.0,55,0.00,,,0.00,weatherlink.com 1.10,2013-09-20 19:19:00,
2013-09-20 15:34:00,83.7,64.0,30.00,ENE,72,1.0,11.0,52,0.00,,,0.00,weatherlink.com 1.10,2013-09-20 19:34:00,
2013-09-20 15:49:00,83.5,64.0,29.99,SSE,165,9.0,11.0,52,0.00,,,0.00,weatherlink.com 1.10,2013-09-20 19:49:00,
2013-09-20 16:04:00,83.7,64.0,29.98,SW,235,3.0,7.0,51,0.00,,,0.00,weatherlink.com 1.10,2013-09-20 20:04:00,
2013-09-20 16:19:00,83.9,64.0,29.98,WSW,239,0.0,9.0,51,0.00,,,0.00,weatherlink.com 1.10,2013-09-20 20:19:00,
2013-09-20 16:34:00,83.8,64.0,29.98,SW,229,0.0,8.0,51,0.00,,,0.00,weatherlink.com 1.10,2013-09-20 20:34:00,
2013-09-20 16:49:00,84.1,64.0,29.96,ESE,120,2.0,9.0,51,0.00,,,0.00,weatherlink.com 1.10,2013-09-20 20:49:00,
2013-09-20 17:04:00,82.4,62.0,29.96,ESE,103,5.0,11.0,51,0.00,,,0.00,weatherlink.com 1.10,2013-09-20 21:04:00,
2013-09-20 17:19:00,81.7,63.0,29.96,SE,144,4.0,12.0,53,0.00,,,0.00,weatherlink.com 1.10,2013-09-20 21:19:00,
2013-09-20 17:34:00,82.5,63.0,29.96,SSW,208,5.0,12.0,51,0.00,,,0.00,weatherlink.com 1.10,2013-09-20 21:34:00,
2013-09-20 17:49:00,82.6,64.0,29.96,West,271,6.0,10.0,53,0.00,,,0.00,weatherlink.com 1.10,2013-09-20 21:49:00,
2013-09-20 18:04:00,82.9,63.0,29.96,West,263,6.0,8.0,51,0.00,,,0.00,weatherlink.com 1.10,2013-09-20 22:04:00,
2013-09-20 18:20:00,81.2,62.0,29.96,SSW,202,2.0,8.0,53,0.00,,,0.00,weatherlink.com 1.10,2013-09-20 22:20:00,
2013-09-20 18:35:00,80.9,63.0,29.95,WSW,240,1.0,8.0,54,0.00,,,0.00,weatherlink.com 1.10,2013-09-20 22:35:00,
2013-09-20 18:50:00,79.9,63.0,29.95,WSW,242,2.0,6.0,56,0.00,,,0.00,weatherlink.com 1.10,2013-09-20 22:50:00,
2013-09-20 19:05:00,79.3,63.0,29.95,WSW,243,4.0,6.0,57,0.00,,,0.00,weatherlink.com 1.10,2013-09-20 23:05:00,
2013-09-20 19:20:00,78.9,63.0,29.94,SW,214,2.0,4.0,59,0.00,,,0.00,weatherlink.com 1.10,2013-09-20 23:20:00,
2013-09-20 19:35:00,78.5,63.0,29.94,SE,140,2.0,5.0,59,0.00,,,0.00,weatherlink.com 1.10,2013-09-20 23:35:00,
2013-09-20 19:50:00,78.2,63.0,29.94,SSE,168,1.0,4.0,60,0.00,,,0.00,weatherlink.com 1.10,2013-09-20 23:50:00,
2013-09-20 20:05:00,77.8,63.0,29.94,SSE,162,2.0,3.0,61,0.00,,,0.00,weatherlink.com 1.10,2013-09-21 00:05:00,
2013-09-20 20:20:00,77.6,63.0,29.94,SE,140,2.0,5.0,62,0.00,,,0.00,weatherlink.com 1.10,2013-09-21 00:20:00,
2013-09-20 20:35:00,77.2,64.0,29.94,SE,134,3.0,3.0,63,0.00,,,0.00,weatherlink.com 1.10,2013-09-21 00:35:00,
2013-09-20 20:50:00,77.9,64.0,29.94,ESE,120,4.0,5.0,63,0.00,,,0.00,weatherlink.com 1.10,2013-09-21 00:50:00,
2013-09-20 21:05:00,76.8,65.0,29.94,ESE,114,5.0,6.0,67,0.00,,,0.00,weatherlink.com 1.10,2013-09-21 01:05:00,
2013-09-20 21:20:00,75.8,65.0,29.94,SE,130,3.0,8.0,70,0.00,,,0.00,weatherlink.com 1.10,2013-09-21 01:20:00,
2013-09-20 21:35:00,74.9,65.0,29.94,ESE,120,5.0,9.0,72,0.00,,,0.00,weatherlink.com 1.10,2013-09-21 01:35:00,
2013-09-20 21:50:00,74.7,66.0,29.93,ESE,117,5.0,6.0,74,0.00,,,0.00,weatherlink.com 1.10,2013-09-21 01:50:00,
2013-09-20 22:05:00,74.0,66.0,29.94,East,94,3.0,5.0,76,0.00,,,0.00,weatherlink.com 1.10,2013-09-21 02:05:00,
2013-09-20 22:20:00,73.8,66.0,29.94,SE,131,2.0,4.0,77,0.00,,,0.00,weatherlink.com 1.10,2013-09-21 02:20:00,
2013-09-20 22:35:00,73.2,66.0,29.93,SSE,147,1.0,2.0,78,0.00,,,0.00,weatherlink.com 1.10,2013-09-21 02:35:00,
2013-09-20 22:50:00,73.4,66.0,29.93,SSE,165,2.0,4.0,77,0.00,,,0.00,weatherlink.com 1.10,2013-09-21 02:50:00,
2013-09-20 23:05:00,73.7,66.0,29.94,South,181,3.0,6.0,76,0.00,,,0.00,weatherlink.com 1.10,2013-09-21 03:05:00,
2013-09-20 23:20:00,73.2,66.0,29.94,SW,234,2.0,5.0,77,0.00,,,0.00,weatherlink.com 1.10,2013-09-21 03:20:00,
2013-09-20 23:35:00,73.1,66.0,29.93,ESE,122,3.0,5.0,77,0.00,,,0.00,weatherlink.com 1.10,2013-09-21 03:35:00,
2013-09-20 23:50:00,72.8,66.0,29.93,SSW,212,2.0,4.0,78,0.00,,,0.00,weatherlink.com 1.10,2013-09-21 03:50:00,